Time;durP1;ratioP1;P1;durP2;ratioP2;P2;SDS_P1;SDS_P2;PMS_P1;PMS_P2;Temp;Humidity;BMP_temperature;BMP_pressure;BME280_temperature;BME280_humidity;BME280_pressure;Samples;Min_cycle;Max_cycle;Signal;HPM_P1;HPM_P2
2021/12/15 00:01:20;;;;;;;19.60;10.23;;;;;;;13.31;50.23;99111.13;4518737;31;20132;-76
2021/12/15 00:03:47;;;;;;;19.10;9.55;;;;;;;12.93;51.47;99114.19;4518207;31;20080;-76
2021/12/15 00:06:18;;;;;;;21.37;9.68;;;;;;;12.92;51.71;99113.34;4504082;31;20111;-76
2021/12/15 00:08:53;;;;;;;20.88;10.02;;;;;;;12.95;51.70;99115.81;4504581;31;20128;-76
2021/12/15 00:11:20;;;;;;;22.50;9.80;;;;;;;13.09;51.51;99109.34;4504085;31;20143;-76
2021/12/15 00:13:48;;;;;;;20.10;10.05;;;;;;;12.99;51.56;99103.63;4518451;31;20136;-76
2021/12/15 00:16:16;;;;;;;20.05;10.20;;;;;;;12.91;51.85;99122.03;4517701;31;20095;-76
2021/12/15 00:18:44;;;;;;;19.35;9.63;;;;;;;12.99;51.58;99117.44;4503891;31;20111;-76
2021/12/15 00:21:14;;;;;;;23.65;11.10;;;;;;;13.04;51.54;99115.50;4504058;31;20441;-76
2021/12/15 00:23:43;;;;;;;19.33;9.25;;;;;;;13.03;51.56;99118.16;4517951;31;20096;-76
2021/12/15 00:26:10;;;;;;;22.45;10.48;;;;;;;13.16;51.40;99115.97;4518129;31;20151;-76
2021/12/15 00:28:38;;;;;;;25.40;10.90;;;;;;;13.25;51.29;99116.50;4490687;31;20143;-76
2021/12/15 00:31:06;;;;;;;18.12;9.68;;;;;;;13.25;51.46;99108.75;4517594;31;20151;-76
2021/12/15 00:33:33;;;;;;;18.92;9.30;;;;;;;13.35;51.13;99108.41;4518040;31;20148;-76
2021/12/15 00:36:01;;;;;;;21.52;10.23;;;;;;;12.99;52.44;99103.63;4517862;31;20118;-76
2021/12/15 00:38:28;;;;;;;22.80;10.40;;;;;;;13.53;50.71;99111.16;4517512;31;20140;-76
2021/12/15 00:40:55;;;;;;;21.80;10.63;;;;;;;13.18;51.30;99109.81;4517910;31;20139;-76
2021/12/15 00:43:22;;;;;;;20.50;9.80;;;;;;;12.40;53.81;99112.53;4517870;31;20091;-76
2021/12/15 00:45:49;;;;;;;20.42;10.10;;;;;;;12.14;55.23;99117.75;4503122;31;20453;-76
2021/12/15 00:48:16;;;;;;;22.52;10.48;;;;;;;12.43;54.14;99117.59;4517766;31;20100;-76
2021/12/15 00:50:44;;;;;;;22.55;10.38;;;;;;;12.37;54.08;99117.00;4517747;31;20144;-76
2021/12/15 00:53:12;;;;;;;20.95;10.35;;;;;;;12.76;53.14;99114.81;4517464;31;20131;-76
2021/12/15 00:55:39;;;;;;;19.65;9.95;;;;;;;13.36;50.93;99117.87;4503248;31;20113;-76
2021/12/15 00:58:07;;;;;;;37.85;11.38;;;;;;;13.07;51.81;99122.31;4517273;31;20119;-77
2021/12/15 01:00:39;;;;;;;21.27;11.07;;;;;;;13.31;51.18;99115.47;4517645;31;20118;-76
2021/12/15 01:03:07;;;;;;;22.92;10.98;;;;;;;13.09;51.69;99117.09;4517692;31;20155;-76
2021/12/15 01:05:38;;;;;;;22.35;10.73;;;;;;;13.03;51.79;99125.94;4517915;31;20181;-76
2021/12/15 01:08:08;;;;;;;22.37;10.68;;;;;;;12.91;51.97;99123.78;4519940;31;20509;-76
2021/12/15 01:11:01;;;;;;;20.25;10.05;;;;;;;13.49;50.66;99125.13;4519714;31;20144;-76
2021/12/15 01:21:45;;;;;;;19.95;10.10;;;;;;;12.94;52.07;99129.69;4519810;31;20163;-76
2021/12/15 01:24:12;;;;;;;21.40;10.40;;;;;;;13.18;51.64;99121.94;4519856;31;20143;-76
2021/12/15 01:26:39;;;;;;;22.87;11.10;;;;;;;13.19;51.75;99126.28;4519481;31;20483;-76
2021/12/15 01:29:06;;;;;;;28.58;13.40;;;;;;;12.63;53.24;99121.28;4519665;31;20091;-76
2021/12/15 01:31:33;;;;;;;27.60;13.73;;;;;;;11.60;57.15;99115.94;4519803;31;20167;-76
2021/12/15 01:34:00;;;;;;;26.15;13.38;;;;;;;12.65;53.90;99122.06;4505133;31;20076;-76
2021/12/15 01:36:27;;;;;;;40.40;16.83;;;;;;;13.11;52.71;99110.97;4519681;31;20095;-76
2021/12/15 01:38:55;;;;;;;35.38;16.40;;;;;;;12.77;53.81;99110.47;4519676;31;20114;-76
2021/12/15 01:41:23;;;;;;;36.60;17.10;;;;;;;12.93;53.33;99109.87;4519405;31;20096;-76
2021/12/15 01:46:54;;;;;;;38.63;18.33;;;;;;;12.92;53.43;99108.19;4519703;31;20103;-76
2021/12/15 01:49:40;;;;;;;40.15;18.08;;;;;;;12.67;54.16;99115.97;4519358;31;20099;-76
2021/12/15 01:52:14;;;;;;;27.67;12.55;;;;;;;12.78;53.58;99104.38;4519718;31;20155;-76
2021/12/15 01:54:43;;;;;;;19.70;8.63;;;;;;;11.98;56.46;99090.66;4519343;31;20064;-76
2021/12/15 01:57:12;;;;;;;21.92;10.50;;;;;;;10.24;63.91;99090.41;4519598;31;20143;-76
2021/12/15 01:59:40;;;;;;;20.20;10.45;;;;;;;9.51;67.67;99086.03;4505065;31;20133;-76
2021/12/15 02:02:07;;;;;;;15.35;6.90;;;;;;;10.17;66.48;99096.56;4519365;31;20467;-76
2021/12/15 02:04:35;;;;;;;18.65;7.60;;;;;;;11.38;61.42;99097.62;4519714;31;20127;-76
2021/12/15 02:07:05;;;;;;;18.95;8.90;;;;;;;10.67;63.97;99103.06;4519622;31;20083;-76
2021/12/15 02:11:59;;;;;;;28.00;13.35;;;;;;;13.26;53.01;99113.00;4519575;31;20092;-76
2021/12/15 02:14:30;;;;;;;27.87;14.13;;;;;;;12.56;55.05;99114.63;4519540;31;20369;-76
2021/12/15 02:16:58;;;;;;;29.73;13.50;;;;;;;12.23;56.22;99129.50;4517792;31;20107;-76
2021/12/15 02:19:25;;;;;;;26.62;12.32;;;;;;;12.43;55.62;99124.53;4519383;31;20114;-76
2021/12/15 02:21:53;;;;;;;24.20;11.07;;;;;;;13.21;52.58;99125.31;4519455;31;20151;-76
2021/12/15 02:24:22;;;;;;;22.45;10.40;;;;;;;13.08;51.79;99131.81;4504758;31;20418;-76
2021/12/15 02:26:53;;;;;;;22.30;10.50;;;;;;;12.10;54.43;99144.59;4519434;31;20468;-76
2021/12/15 02:29:22;;;;;;;25.12;10.98;;;;;;;12.06;55.02;99133.50;4505269;31;20558;-76
2021/12/15 02:32:16;;;;;;;22.52;9.95;;;;;;;11.78;55.73;99120.53;4519387;31;20608;-76
2021/12/15 02:37:20;;;;;;;22.20;10.75;;;;;;;12.08;54.49;99116.19;4504470;31;20103;-76
2021/12/15 02:39:56;;;;;;;20.12;9.48;;;;;;;12.09;54.56;99117.87;4519283;31;20173;-76
2021/12/15 02:42:36;;;;;;;21.50;10.07;;;;;;;13.01;51.54;99131.16;4519427;31;20088;-76
2021/12/15 02:45:07;;;;;;;21.12;9.93;;;;;;;12.91;51.42;99131.53;4518976;31;20072;-76
2021/12/15 02:47:34;;;;;;;20.25;9.45;;;;;;;12.10;53.72;99126.47;4519217;31;20145;-76
2021/12/15 02:50:05;;;;;;;21.00;9.52;;;;;;;11.78;54.94;99119.69;4519254;31;20163;-76
2021/12/15 02:52:32;;;;;;;18.48;8.85;;;;;;;11.85;54.85;99121.22;4519005;31;20170;-76
2021/12/15 02:54:59;;;;;;;18.40;8.32;;;;;;;12.14;54.15;99122.91;4519317;31;20091;-76
2021/12/15 02:57:26;;;;;;;21.12;9.10;;;;;;;12.44;53.61;99121.03;4518743;31;20092;-76
2021/12/15 03:00:05;;;;;;;19.12;8.48;;;;;;;11.61;55.97;99116.78;4519030;31;20171;-76
2021/12/15 03:05:17;;;;;;;18.00;8.85;;;;;;;11.61;56.20;99121.94;4518870;31;20198;-76
2021/12/15 03:07:56;;;;;;;18.55;8.15;;;;;;;11.86;55.33;99134.09;4506393;31;20115;-76
2021/12/15 03:15:54;;;;;;;15.05;6.95;;;;;;;12.11;54.57;99133.34;4518757;31;20076;-76
2021/12/15 03:18:24;;;;;;;15.88;7.20;;;;;;;13.17;51.18;99135.78;4518657;31;20143;-76
2021/12/15 03:21:04;;;;;;;17.85;7.55;;;;;;;12.90;52.18;99142.81;4519127;31;20200;-76
2021/12/15 03:23:38;;;;;;;17.37;7.87;;;;;;;12.83;52.07;99141.31;4519109;31;20099;-76
2021/12/15 03:26:06;;;;;;;18.08;8.25;;;;;;;11.77;56.21;99138.69;4518695;31;20076;-76
2021/12/15 03:39:25;;;;;;;33.55;14.43;;;;;;;10.95;60.81;99144.44;4518510;31;20103;-76
2021/12/15 03:41:59;;;;;;;35.92;14.63;;;;;;;10.79;61.12;99151.78;4518783;31;20105;-76
2021/12/15 03:44:27;;;;;;;33.88;14.70;;;;;;;11.32;60.18;99144.31;4518875;31;20093;-76
2021/12/15 03:46:54;;;;;;;32.03;15.15;;;;;;;11.02;61.29;99139.09;4518338;31;20083;-76
2021/12/15 03:49:21;;;;;;;35.40;16.30;;;;;;;10.99;60.79;99139.19;4504406;31;20100;-76
2021/12/15 03:51:48;;;;;;;34.72;14.73;;;;;;;11.10;60.05;99131.16;4518931;31;20135;-76
2021/12/15 03:54:17;;;;;;;36.65;16.65;;;;;;;10.86;61.95;99140.41;4504162;31;20496;-76
2021/12/15 03:56:46;;;;;;;35.40;15.13;;;;;;;10.65;62.36;99134.06;4518529;31;20550;-76
2021/12/15 03:59:13;;;;;;;35.63;14.68;;;;;;;11.12;60.82;99129.34;4518414;31;20533;-76
2021/12/15 04:01:40;;;;;;;35.75;15.55;;;;;;;11.21;60.30;99134.28;4518210;31;20161;-76
2021/12/15 04:04:08;;;;;;;37.42;16.50;;;;;;;11.12;60.61;99126.78;4518553;31;20097;-76
2021/12/15 04:06:37;;;;;;;35.80;15.35;;;;;;;10.88;61.70;99133.47;4518418;31;20132;-76
2021/12/15 04:09:07;;;;;;;36.58;16.27;;;;;;;11.02;60.96;99127.91;4517999;31;20544;-76
2021/12/15 04:11:36;;;;;;;33.50;15.00;;;;;;;11.02;60.66;99139.09;4518493;31;20140;-76
2021/12/15 04:14:11;;;;;;;38.65;16.55;;;;;;;11.16;60.60;99145.59;4518417;31;20138;-76
2021/12/15 04:16:46;;;;;;;37.35;16.10;;;;;;;11.02;60.96;99136.50;4517735;31;20083;-76
2021/12/15 04:19:19;;;;;;;35.53;15.50;;;;;;;12.31;56.28;99135.28;4518235;31;20100;-76
2021/12/15 04:21:47;;;;;;;35.40;14.63;;;;;;;12.28;55.98;99136.25;4517932;31;20583;-76
2021/12/15 04:24:16;;;;;;;35.42;15.30;;;;;;;12.18;56.44;99136.59;4518274;31;20118;-76
2021/12/15 04:26:45;;;;;;;34.75;14.90;;;;;;;12.55;54.82;99137.09;4518147;31;20127;-76
2021/12/15 04:29:13;;;;;;;35.90;15.93;;;;;;;11.99;57.08;99144.91;4517675;31;20097;-76
2021/12/15 04:31:48;;;;;;;33.83;15.20;;;;;;;11.77;57.26;99139.53;4503809;31;20120;-76
2021/12/15 04:34:15;;;;;;;33.88;15.35;;;;;;;12.02;57.02;99134.50;4518134;31;20585;-76
2021/12/15 04:36:47;;;;;;;31.92;14.80;;;;;;;12.11;56.60;99139.34;4503294;31;20075;-76
2021/12/15 04:39:17;;;;;;;34.13;15.48;;;;;;;11.76;57.58;99137.00;4517864;31;20108;-76
2021/12/15 04:41:48;;;;;;;31.60;14.80;;;;;;;12.71;54.35;99146.03;4519783;31;20147;-76
2021/12/15 04:44:17;;;;;;;31.55;15.10;;;;;;;12.28;56.25;99151.78;4519881;31;20087;-76
2021/12/15 04:46:50;;;;;;;32.85;15.25;;;;;;;11.72;57.61;99156.94;4520125;31;20100;-76
2021/12/15 04:49:19;;;;;;;33.00;14.77;;;;;;;11.47;58.63;99155.94;4520072;31;20152;-76
2021/12/15 04:51:47;;;;;;;35.38;16.33;;;;;;;11.70;57.98;99153.53;4519904;31;20501;-76
2021/12/15 04:54:16;;;;;;;39.03;15.43;;;;;;;12.11;56.56;99156.63;4520084;31;20421;-76
2021/12/15 04:56:43;;;;;;;31.10;14.18;;;;;;;11.71;57.82;99155.25;4519604;31;20171;-76
2021/12/15 04:59:10;;;;;;;31.27;15.02;;;;;;;11.25;59.17;99156.53;4519985;31;20100;-76
2021/12/15 05:01:37;;;;;;;31.37;15.00;;;;;;;11.07;60.25;99156.22;4520155;31;20159;-76
2021/12/15 05:04:05;;;;;;;28.77;13.20;;;;;;;10.75;61.01;99157.91;4519666;31;20510;-76
2021/12/15 05:06:32;;;;;;;28.85;13.13;;;;;;;10.66;61.28;99158.16;4519991;31;20158;-76
2021/12/15 05:09:00;;;;;;;28.75;13.93;;;;;;;11.19;59.91;99158.47;4505458;31;20481;-76
2021/12/15 05:11:27;;;;;;;29.63;14.02;;;;;;;11.41;58.90;99164.72;4505385;31;20107;-76
2021/12/15 05:13:54;;;;;;;27.92;12.77;;;;;;;11.40;58.79;99164.78;4515453;31;140045;-76
2021/12/15 05:16:21;;;;;;;27.40;11.07;;;;;;;9.55;65.72;99167.53;4519629;31;20142;-76
2021/12/15 05:18:49;;;;;;;25.77;11.23;;;;;;;8.73;70.09;99168.28;4519525;31;20518;-76
2021/12/15 05:21:17;;;;;;;26.75;11.80;;;;;;;9.03;68.74;99162.56;4519867;31;20091;-76
2021/12/15 05:23:49;;;;;;;23.65;10.88;;;;;;;9.72;65.89;99174.06;4519887;31;20125;-76
2021/12/15 05:26:15;;;;;;;26.48;12.05;;;;;;;9.27;68.10;99162.09;4519679;31;20438;-76
2021/12/15 05:28:42;;;;;;;25.98;11.20;;;;;;;9.66;66.57;99164.72;4519807;31;20108;-76
2021/12/15 05:31:09;;;;;;;23.50;11.40;;;;;;;9.74;66.31;99172.31;4519843;31;20107;-76
2021/12/15 05:33:36;;;;;;;25.65;10.95;;;;;;;9.43;67.09;99170.34;4505154;31;20471;-76
2021/12/15 05:36:04;;;;;;;24.37;10.98;;;;;;;9.06;68.77;99177.13;4519701;31;20072;-76
2021/12/15 05:38:34;;;;;;;26.80;11.70;;;;;;;9.42;67.47;99170.37;4505739;31;20116;-76
2021/12/15 05:41:01;;;;;;;26.75;10.88;;;;;;;8.84;69.49;99176.66;4519507;31;20114;-76
2021/12/15 05:43:28;;;;;;;24.73;11.00;;;;;;;9.31;67.97;99177.50;4519755;31;20143;-76
2021/12/15 05:45:55;;;;;;;20.92;9.73;;;;;;;9.36;67.55;99184.25;4519373;31;20095;-76
2021/12/15 05:48:23;;;;;;;24.87;11.32;;;;;;;9.36;67.13;99183.38;4519727;31;20091;-76
2021/12/15 05:50:51;;;;;;;25.50;12.18;;;;;;;8.84;69.12;99177.50;4519537;31;20091;-76
2021/12/15 05:53:19;;;;;;;26.75;11.32;;;;;;;9.18;67.28;99180.31;4519348;31;20146;-76
2021/12/15 05:55:46;;;;;;;21.87;9.88;;;;;;;9.05;67.79;99183.16;4519664;31;20562;-76
2021/12/15 05:58:13;;;;;;;23.58;10.23;;;;;;;8.74;69.37;99182.84;4519325;31;20438;-76
2021/12/15 06:00:42;;;;;;;26.37;10.95;;;;;;;8.06;71.80;99185.56;4519277;31;20159;-76
2021/12/15 06:03:09;;;;;;;23.40;9.75;;;;;;;8.39;71.31;99192.81;4519577;31;20098;-76
2021/12/15 06:05:37;;;;;;;25.02;11.35;;;;;;;8.85;68.77;99193.78;4519638;31;20227;-76
2021/12/15 06:08:05;;;;;;;23.10;10.10;;;;;;;8.29;70.89;99201.50;4519106;31;20116;-76
2021/12/15 06:10:35;;;;;;;27.05;10.18;;;;;;;9.26;67.13;99198.19;4519588;31;20166;-76
2021/12/15 06:13:04;;;;;;;27.90;9.73;;;;;;;9.08;67.97;99193.37;4519522;31;20084;-76
2021/12/15 06:15:31;;;;;;;24.02;10.20;;;;;;;8.54;70.61;99196.88;4518929;31;20190;-76
2021/12/15 06:18:02;;;;;;;22.13;9.48;;;;;;;8.70;69.66;99202.59;4505040;31;20119;-76
2021/12/15 06:20:30;;;;;;;23.52;9.02;;;;;;;8.46;70.81;99211.59;4505236;31;20589;-76
2021/12/15 06:22:59;;;;;;;20.73;9.02;;;;;;;8.40;71.12;99217.69;4504822;31;20150;-76
2021/12/15 06:25:28;;;;;;;23.65;10.48;;;;;;;8.47;70.94;99217.56;4505330;31;20071;-76
2021/12/15 06:27:55;;;;;;;23.25;9.85;;;;;;;8.66;70.27;99226.69;4519027;31;20091;-76
2021/12/15 06:30:22;;;;;;;26.67;10.52;;;;;;;8.74;69.70;99230.00;4519445;31;20602;-76
2021/12/15 06:32:49;;;;;;;24.08;10.25;;;;;;;8.17;71.67;99231.69;4519493;31;20156;-76
2021/12/15 06:35:16;;;;;;;22.75;10.05;;;;;;;8.41;70.51;99233.97;4519042;31;20071;-75
2021/12/15 06:37:43;;;;;;;23.77;10.68;;;;;;;8.42;70.15;99234.81;4519072;31;20163;-76
2021/12/15 06:40:10;;;;;;;23.42;10.93;;;;;;;7.95;72.85;99226.84;4519389;31;20448;-76
2021/12/15 06:42:39;;;;;;;23.87;10.52;;;;;;;8.04;71.61;99236.16;4504775;31;20106;-76
2021/12/15 06:45:08;;;;;;;23.55;9.40;;;;;;;7.31;75.87;99237.91;4519257;31;20150;-75
2021/12/15 06:57:17;;;;;;;25.48;10.85;;;;;;;7.50;75.64;99236.84;4519246;31;20159;-75
2021/12/15 06:58:48;;;;;;;25.48;11.15;;;;;;;9.23;68.05;99257.47;4519289;31;20155;-77
2021/12/15 07:01:16;;;;;;;23.87;10.80;;;;;;;9.45;66.12;99260.47;4519255;31;20431;-77
2021/12/15 07:03:44;;;;;;;22.45;9.93;;;;;;;9.45;65.78;99270.78;4518405;31;20491;-77
2021/12/15 07:06:10;;;;;;;;;;;;;;;10.57;62.21;99261.59;4519370;31;20071;-76
2021/12/15 07:08:37;;;;;;;21.37;9.80;;;;;;;10.78;61.22;99255.06;4518835;31;19951;-76
2021/12/15 07:11:05;;;;;;;20.10;9.38;;;;;;;10.93;60.49;99271.03;4503857;31;20462;-76
2021/12/15 07:13:33;;;;;;;21.92;9.40;;;;;;;11.53;58.29;99278.09;4518705;31;20102;-76
2021/12/15 07:16:04;;;;;;;20.90;9.75;;;;;;;11.62;57.41;99274.41;4518580;31;20151;-76
2021/12/15 07:18:42;;;;;;;19.95;9.48;;;;;;;12.09;55.49;99277.41;4504876;31;20096;-77
2021/12/15 07:21:16;;;;;;;21.17;10.00;;;;;;;11.75;56.39;99283.53;4504671;31;20129;-76
2021/12/15 07:23:43;;;;;;;20.17;8.73;;;;;;;12.07;55.89;99282.63;4505417;31;20083;-76
2021/12/15 07:26:11;;;;;;;19.30;9.23;;;;;;;11.41;58.29;99277.56;4518369;31;20515;-76
2021/12/15 07:28:39;;;;;;;19.33;8.85;;;;;;;12.32;55.08;99274.12;4518809;31;20195;-76
2021/12/15 07:31:07;;;;;;;20.02;9.18;;;;;;;11.09;58.42;99276.69;4504392;31;20103;-77
2021/12/15 07:33:37;;;;;;;18.35;8.68;;;;;;;11.71;57.10;99283.66;4519012;31;20102;-76
2021/12/15 07:36:05;;;;;;;20.17;8.68;;;;;;;11.49;57.30;99278.22;4518321;31;20147;-75
2021/12/15 07:38:34;;;;;;;19.83;9.13;;;;;;;11.93;55.96;99281.34;4503832;31;20118;-76
2021/12/15 07:41:03;;;;;;;19.52;9.27;;;;;;;12.44;53.95;99285.00;4518855;31;20522;-75
2021/12/15 07:43:30;;;;;;;20.67;9.45;;;;;;;12.45;53.85;99285.84;4518823;31;20104;-73
2021/12/15 07:46:02;;;;;;;20.10;9.35;;;;;;;12.67;53.31;99293.78;4518296;31;20547;-75
2021/12/15 07:48:34;;;;;;;19.33;9.38;;;;;;;12.55;52.94;99289.84;4518496;31;20445;-74
2021/12/15 07:51:05;;;;;;;19.17;8.70;;;;;;;12.71;52.96;99290.19;4518677;31;20088;-75
2021/12/15 07:53:32;;;;;;;21.62;9.20;;;;;;;11.93;55.36;99297.72;4517942;31;20083;-77
2021/12/15 07:55:59;;;;;;;20.25;8.90;;;;;;;11.79;56.46;99297.19;4519671;31;20134;-77
2021/12/15 07:58:28;;;;;;;19.87;9.43;;;;;;;11.52;57.35;99301.41;4524944;31;20519;-78
2021/12/15 08:00:58;;;;;;;21.02;9.00;;;;;;;11.12;58.87;99304.16;4525555;31;20437;-77
2021/12/15 08:03:27;;;;;;;20.50;8.80;;;;;;;10.53;60.86;99307.28;4509112;31;20104;-78
2021/12/15 08:05:54;;;;;;;21.42;9.23;;;;;;;11.39;57.90;99310.38;4508859;31;20127;-78
2021/12/15 08:08:22;;;;;;;19.77;8.95;;;;;;;10.84;59.81;99302.22;4523691;31;20223;-78
2021/12/15 08:10:53;;;;;;;23.00;9.75;;;;;;;11.02;58.81;99308.69;4520460;31;20100;-78
2021/12/15 08:13:21;;;;;;;21.75;9.48;;;;;;;11.14;59.20;99313.56;4522291;31;20118;-78
2021/12/15 08:15:48;;;;;;;21.15;10.23;;;;;;;10.84;60.08;99314.28;4521709;31;20100;-78
2021/12/15 08:18:15;;;;;;;20.12;9.35;;;;;;;12.09;56.06;99322.25;4505389;31;20110;-78
2021/12/15 08:20:42;;;;;;;21.45;9.88;;;;;;;12.33;55.06;99323.25;4519957;31;20100;-79
2021/12/15 08:23:09;;;;;;;24.10;11.18;;;;;;;11.55;57.73;99327.16;4520208;31;20170;-79
2021/12/15 08:25:38;;;;;;;22.90;10.43;;;;;;;10.95;59.63;99320.94;4505813;31;20143;-79
2021/12/15 08:28:07;;;;;;;24.77;10.32;;;;;;;10.79;60.00;99331.63;4519651;31;20166;-79
2021/12/15 08:30:35;;;;;;;23.70;10.52;;;;;;;11.55;58.14;99329.75;4520247;31;20156;-78
2021/12/15 08:33:06;;;;;;;24.45;10.07;;;;;;;11.61;57.15;99332.19;4520152;31;20159;-77
2021/12/15 08:35:38;;;;;;;22.55;10.57;;;;;;;11.92;56.69;99333.97;4505582;31;20146;-77
2021/12/15 08:38:06;;;;;;;24.30;10.88;;;;;;;11.97;56.33;99335.53;4520028;31;20445;-77
2021/12/15 08:40:33;;;;;;;20.95;9.35;;;;;;;11.62;57.81;99333.88;4520005;31;20103;-76
2021/12/15 08:43:00;;;;;;;24.23;10.88;;;;;;;11.12;58.70;99343.75;4519689;31;20088;-78
2021/12/15 08:45:28;;;;;;;22.75;10.27;;;;;;;10.29;61.96;99349.91;4505668;31;20102;-78
2021/12/15 08:48:00;;;;;;;23.25;10.57;;;;;;;10.47;61.85;99337.53;4519998;31;20099;-76
2021/12/15 08:50:29;;;;;;;24.98;10.18;;;;;;;9.79;63.93;99354.34;4519736;31;20442;-77
2021/12/15 08:52:57;;;;;;;23.92;10.77;;;;;;;10.49;62.07;99362.41;4519973;31;20076;-77
2021/12/15 08:55:25;;;;;;;20.55;8.73;;;;;;;9.66;65.06;99355.41;4519531;31;20099;-76
2021/12/15 08:57:56;;;;;;;23.58;10.98;;;;;;;9.85;64.87;99358.50;4519723;31;20095;-76
2021/12/15 09:00:25;;;;;;;27.08;12.05;;;;;;;9.37;66.91;99357.69;4519885;31;20115;-77
2021/12/15 09:02:55;;;;;;;25.25;10.43;;;;;;;9.84;65.44;99354.25;4519624;31;20084;-76
2021/12/15 09:05:23;;;;;;;27.52;12.48;;;;;;;10.23;64.25;99355.22;4519937;31;20102;-77
2021/12/15 09:07:53;;;;;;;26.50;11.57;;;;;;;10.89;61.54;99354.63;4505420;31;20162;-76
2021/12/15 09:10:22;;;;;;;22.00;9.63;;;;;;;10.19;63.75;99368.16;4519541;31;20105;-76
2021/12/15 09:12:49;;;;;;;24.52;10.55;;;;;;;10.24;63.12;99372.41;4519914;31;20237;-77
2021/12/15 09:15:17;;;;;;;24.60;11.23;;;;;;;10.15;63.45;99368.25;4519524;31;20135;-77
2021/12/15 09:17:44;;;;;;;23.05;10.13;;;;;;;10.22;63.74;99378.47;4505009;31;20099;-75
2021/12/15 09:20:15;;;;;;;21.10;9.32;;;;;;;9.42;66.15;99368.75;4505532;31;20171;-77
2021/12/15 09:22:42;;;;;;;23.77;9.77;;;;;;;9.65;66.06;99368.34;4519943;31;20099;-77
2021/12/15 09:25:11;;;;;;;20.75;10.07;;;;;;;9.53;65.87;99374.56;4519467;31;20123;-77
2021/12/15 09:27:42;;;;;;;22.70;9.88;;;;;;;9.76;65.45;99371.56;4519462;31;20096;-77
2021/12/15 09:30:13;;;;;;;27.15;9.82;;;;;;;9.84;65.46;99369.72;4505573;31;20110;-77
2021/12/15 09:32:41;;;;;;;24.83;11.07;;;;;;;9.21;67.46;99364.78;4519844;31;20101;-77
2021/12/15 09:35:09;;;;;;;23.27;11.10;;;;;;;9.77;65.91;99370.69;4505351;31;20099;-77
2021/12/15 09:37:36;;;;;;;23.02;10.52;;;;;;;10.43;63.49;99362.56;4519314;31;20100;-77
2021/12/15 09:40:06;;;;;;;19.67;8.98;;;;;;;10.37;63.68;99366.09;4519656;31;20419;-77
2021/12/15 09:42:37;;;;;;;22.27;10.13;;;;;;;9.28;67.33;99358.69;4519631;31;20079;-77
2021/12/15 10:18:49;;;;;;;14.30;6.12;;;;;;;8.64;69.88;99344.22;4518957;31;20080;-77
2021/12/15 10:21:35;;;;;;;16.77;7.43;;;;;;;9.09;68.55;99354.69;4529889;31;20103;-77
2021/12/15 10:24:04;;;;;;;15.93;6.65;;;;;;;8.75;69.17;99351.78;4534740;31;20159;-76
2021/12/15 10:26:31;;;;;;;16.92;7.00;;;;;;;8.40;70.89;99351.41;4534429;31;20157;-77
2021/12/15 10:29:06;;;;;;;16.40;6.87;;;;;;;8.33;71.43;99354.06;4534686;31;20106;-78
2021/12/15 10:31:33;;;;;;;16.35;7.37;;;;;;;7.77;73.47;99351.28;4519355;31;20107;-78
2021/12/15 10:34:03;;;;;;;15.55;7.57;;;;;;;7.89;73.80;99362.31;4532625;31;20139;-78
2021/12/15 10:36:33;;;;;;;16.17;6.50;;;;;;;7.87;74.21;99364.00;4532900;31;20090;-78
2021/12/15 10:39:04;;;;;;;16.45;6.82;;;;;;;8.51;71.16;99364.12;4531548;31;20592;-79
2021/12/15 10:41:34;;;;;;;18.77;7.40;;;;;;;8.17;71.76;99362.81;4532448;31;20117;-79
2021/12/15 10:44:05;;;;;;;19.65;7.32;;;;;;;8.51;70.46;99356.44;4532996;31;20124;-79
2021/12/15 10:46:57;;;;;;;15.18;6.35;;;;;;;8.24;72.44;99362.72;4534037;31;20162;-79
2021/12/15 10:49:29;;;;;;;15.95;6.75;;;;;;;8.11;73.01;99356.03;4534894;31;20097;-80
2021/12/15 10:52:02;;;;;;;17.50;8.10;;;;;;;7.59;74.92;99358.31;4535285;31;20115;-79
2021/12/15 10:54:30;;;;;;;20.17;9.43;;;;;;;7.82;74.24;99352.06;4535080;31;20465;-80
2021/12/15 10:57:08;;;;;;;21.05;8.63;;;;;;;7.75;74.43;99349.56;4535274;31;20459;-79
2021/12/15 10:59:39;;;;;;;17.35;7.30;;;;;;;8.03;74.05;99334.72;4535074;31;20406;-79
2021/12/15 11:02:29;;;;;;;18.50;7.18;;;;;;;8.40;71.69;99359.13;4535119;31;20107;-80
2021/12/15 11:05:01;;;;;;;20.02;8.80;;;;;;;7.77;74.78;99355.56;4535507;31;20087;-79
2021/12/15 11:07:32;;;;;;;23.25;10.27;;;;;;;7.48;76.37;99351.56;4535331;31;20101;-79
2021/12/15 11:10:13;;;;;;;23.62;10.75;;;;;;;8.06;73.75;99355.22;4520465;31;20128;-77
2021/12/15 11:12:43;;;;;;;27.08;12.23;;;;;;;7.61;75.43;99349.72;4520722;31;20506;-77
2021/12/15 11:15:13;;;;;;;22.48;8.82;;;;;;;7.30;77.52;99358.59;4534713;31;20163;-76
2021/12/15 11:17:46;;;;;;;21.45;10.15;;;;;;;8.06;73.85;99355.22;4534409;31;20465;-77
2021/12/15 11:20:26;;;;;;;20.90;8.77;;;;;;;7.68;75.56;99353.94;4534691;31;20143;-77
2021/12/15 11:23:04;;;;;;;22.87;9.60;;;;;;;8.02;74.00;99361.28;4534711;31;20159;-77
2021/12/15 11:25:46;;;;;;;22.05;9.38;;;;;;;8.17;73.62;99357.66;4535000;31;20490;-78
2021/12/15 11:28:23;;;;;;;17.98;7.68;;;;;;;7.71;75.03;99361.63;4534781;31;20100;-78
2021/12/15 11:30:58;;;;;;;20.05;8.63;;;;;;;7.17;78.06;99358.69;4534597;31;20083;-78
2021/12/15 11:33:37;;;;;;;23.55;9.40;;;;;;;7.04;78.63;99364.78;4535029;31;20144;-78
2021/12/15 11:36:25;;;;;;;22.80;9.30;;;;;;;7.81;75.04;99370.06;4534957;31;20150;-78
2021/12/15 11:38:53;;;;;;;;;;;;;;;6.65;79.42;99364.19;4534794;31;20135;-78
2021/12/15 11:41:31;;;;;;;26.10;11.45;;;;;;;6.85;79.29;99376.91;4534875;31;20058;-78
2021/12/15 11:44:07;;;;;;;26.50;11.55;;;;;;;6.27;82.35;99381.47;4534552;31;20087;-78
2021/12/15 11:46:41;;;;;;;20.70;10.00;;;;;;;7.17;79.34;99379.22;4520555;31;20125;-77
2021/12/15 11:49:13;;;;;;;25.60;10.63;;;;;;;7.49;76.57;99385.81;4534308;31;20148;-76
2021/12/15 11:51:44;;;;;;;19.20;8.65;;;;;;;7.81;74.96;99382.94;4534273;31;20138;-77
2021/12/15 11:54:27;;;;;;;21.08;9.88;;;;;;;7.68;75.09;99384.78;4534632;31;20193;-77
2021/12/15 11:57:02;;;;;;;23.85;10.77;;;;;;;7.63;75.70;99381.38;4534653;31;20108;-77
2021/12/15 11:59:32;;;;;;;21.83;9.95;;;;;;;8.03;73.72;99381.81;4534195;31;20095;-77
2021/12/15 12:02:06;;;;;;;21.42;9.82;;;;;;;8.10;74.33;99380.06;4534681;31;20075;-77
2021/12/15 12:04:46;;;;;;;19.77;9.40;;;;;;;7.95;74.40;99385.34;4534478;31;20143;-78
2021/12/15 12:07:16;;;;;;;21.75;9.63;;;;;;;8.00;74.52;99389.59;4534320;31;20150;-76
2021/12/15 12:09:46;;;;;;;18.58;8.73;;;;;;;8.27;73.12;99385.81;4534211;31;20178;-77
2021/12/15 12:12:15;;;;;;;23.62;9.93;;;;;;;8.05;73.44;99376.66;4534370;31;20143;-76
2021/12/15 12:14:49;;;;;;;20.55;9.25;;;;;;;7.76;74.85;99382.09;4534062;31;20126;-77
2021/12/15 12:17:18;;;;;;;20.98;9.73;;;;;;;7.96;73.96;99374.19;4534333;31;20099;-75
2021/12/15 12:20:10;;;;;;;21.05;8.45;;;;;;;8.88;70.40;99369.59;4533559;31;20102;-77
2021/12/15 12:22:39;;;;;;;21.10;8.82;;;;;;;8.92;69.60;99375.53;4534107;31;20376;-76
2021/12/15 12:25:15;;;;;;;19.58;8.40;;;;;;;8.91;70.60;99364.41;4534173;31;20404;-77
2021/12/15 12:27:44;;;;;;;17.52;7.97;;;;;;;8.77;70.06;99365.50;4533723;31;20130;-76
2021/12/15 12:30:33;;;;;;;20.25;9.13;;;;;;;8.94;69.40;99369.53;4519317;31;20151;-76
2021/12/15 12:33:04;;;;;;;18.73;8.10;;;;;;;8.92;69.56;99368.66;4533652;31;20433;-76
2021/12/15 12:35:33;;;;;;;19.08;7.28;;;;;;;9.46;67.78;99371.25;4534204;31;20130;-76
2021/12/15 12:38:20;;;;;;;18.98;8.50;;;;;;;8.66;70.09;99366.50;4519280;31;20158;-76
2021/12/15 12:41:01;;;;;;;19.05;7.90;;;;;;;9.38;67.78;99369.69;4519193;31;20603;-76
2021/12/15 12:43:35;;;;;;;17.23;7.85;;;;;;;9.45;67.49;99372.09;4533724;31;20147;-76
2021/12/15 12:46:19;;;;;;;17.98;7.90;;;;;;;9.01;69.05;99364.25;4519436;31;20122;-76
2021/12/15 13:01:13;;;;;;;22.02;8.75;;;;;;;10.25;63.82;99352.59;4533385;31;20579;-77
2021/12/15 13:03:45;;;;;;;20.45;9.60;;;;;;;10.77;61.79;99346.31;4536112;31;20079;-77
2021/12/15 13:06:20;;;;;;;20.58;9.45;;;;;;;10.21;64.02;99340.59;4536055;31;20140;-76
2021/12/15 13:08:59;;;;;;;18.42;8.52;;;;;;;9.62;66.17;99338.31;4535624;31;20113;-77